Terminal Aerodrome Forecast
Issued by NWS Jackson, KY

Home | Current Version | Previous Version | Text Only | Print | Product List | Glossary On
Versions: 1 2 3 4 5 6 7 8 9 10 11 12 13 14 15 16 17 18 19 20 21
326
FTUS43 KJKL 152334
TAFLOZ
TAF
KLOZ 152334Z 1600/1624 VRB03KT 4SM BR VCSH OVC003
     FM160200 00000KT 4SM BR OVC003
     FM160600 VRB03KT 1/2SM FG OVC002
     FM161500 VRB03KT P6SM OVC008
     FM161600 17004KT P6SM OVC010
     FM161800 19006KT P6SM BKN040=

USA.gov is the U.S. government's official web portal to all federal, state and local government web resources and services.